Time;durP1;ratioP1;P1;durP2;ratioP2;P2;SDS_P1;SDS_P2;PMS_P1;PMS_P2;Temp;Humidity;BMP_temperature;BMP_pressure;BME280_temperature;BME280_humidity;BME280_pressure;Samples;Min_cycle;Max_cycle;Signal;HPM_P1;HPM_P2
2021/08/13 00:01:00;;;;;;;28.98;15.98;;;;;;;18.91;69.61;101632.63;5111250;28;20044;-69
2021/08/13 00:03:27;;;;;;;36.47;16.92;;;;;;;18.88;69.43;101634.88;5111890;28;20067;-69
2021/08/13 00:05:53;;;;;;;31.63;16.65;;;;;;;18.87;69.67;101638.59;5112855;28;20044;-68
2021/08/13 00:08:21;;;;;;;27.75;15.88;;;;;;;18.86;69.97;101640.41;5111927;28;20114;-69
2021/08/13 00:10:49;;;;;;;33.85;15.38;;;;;;;18.85;70.31;101641.47;5111278;28;20377;-69
2021/08/13 00:13:17;;;;;;;33.58;16.38;;;;;;;18.80;71.21;101655.41;5112207;28;20063;-70
2021/08/13 00:15:44;;;;;;;29.10;15.50;;;;;;;18.78;71.74;101644.03;5112173;28;20039;-69
2021/08/13 00:18:11;;;;;;;29.63;15.23;;;;;;;18.78;71.75;101651.25;5111511;28;20074;-69
2021/08/13 00:20:37;;;;;;;28.80;15.23;;;;;;;18.73;71.82;101659.88;5111963;28;20043;-69
2021/08/13 00:23:05;;;;;;;34.80;15.57;;;;;;;18.72;72.16;101654.66;5112155;28;20065;-69
2021/08/13 00:25:31;;;;;;;29.50;15.25;;;;;;;18.71;72.27;101661.91;5110973;28;20063;-69
2021/08/13 00:28:02;;;;;;;29.17;14.70;;;;;;;18.69;71.64;101669.31;5112124;28;20036;-69
2021/08/13 00:30:28;;;;;;;27.88;15.02;;;;;;;18.73;71.74;101661.72;5110856;28;20040;-69
2021/08/13 00:32:55;;;;;;;29.10;15.77;;;;;;;18.73;72.01;101659.03;5111005;28;20108;-69
2021/08/13 00:35:22;;;;;;;29.40;15.38;;;;;;;18.74;72.53;101661.53;5110247;28;20039;-69
2021/08/13 00:37:49;;;;;;;29.90;15.40;;;;;;;18.75;72.34;101667.75;5110917;28;20395;-69
2021/08/13 00:40:16;;;;;;;32.53;15.35;;;;;;;18.76;72.30;101680.19;5111671;28;20081;-69
2021/08/13 00:42:43;;;;;;;27.05;15.07;;;;;;;18.78;72.64;101678.13;5114188;28;20043;-68
2021/08/13 00:45:12;;;;;;;25.50;14.57;;;;;;;18.80;72.26;101679.59;5115225;28;20522;-69
2021/08/13 00:47:49;;;;;;;25.98;14.73;;;;;;;18.82;72.11;101676.78;5115790;28;20495;-69
2021/08/13 00:50:24;;;;;;;29.08;15.50;;;;;;;18.77;71.86;101674.63;5115226;28;20139;-69
2021/08/13 00:52:55;;;;;;;28.58;14.85;;;;;;;18.72;72.49;101673.47;5114048;28;20040;-68
2021/08/13 00:55:22;;;;;;;26.20;14.82;;;;;;;18.73;72.64;101664.41;5114860;28;20043;-69
2021/08/13 00:57:56;;;;;;;28.83;14.75;;;;;;;18.72;72.26;101671.66;5112009;27;20087;-69
2021/08/13 01:00:43;;;;;;;29.42;14.20;;;;;;;18.67;72.40;101667.84;5120150;27;20088;-69
2021/08/13 01:03:10;;;;;;;30.13;14.32;;;;;;;18.72;72.21;101674.34;5101155;27;20067;-69
2021/08/13 01:05:40;;;;;;;27.45;14.95;;;;;;;18.70;71.92;101665.63;5093601;28;20387;-69
2021/08/13 01:08:08;;;;;;;29.02;15.75;;;;;;;18.74;72.71;101660.72;5094396;28;20097;-69
2021/08/13 01:10:46;;;;;;;28.75;15.05;;;;;;;18.73;72.43;101662.56;5094805;28;20067;-69
2021/08/13 01:13:24;;;;;;;31.05;14.70;;;;;;;18.73;73.17;101659.88;5093259;28;20048;-68
2021/08/13 01:15:59;;;;;;;29.42;14.30;;;;;;;18.77;73.52;101661.19;5092503;28;20035;-69
2021/08/13 01:18:32;;;;;;;29.08;14.75;;;;;;;18.77;73.70;101668.38;5112482;28;20056;-69
2021/08/13 01:21:32;;;;;;;26.00;14.52;;;;;;;18.68;73.07;101670.38;5096899;28;20052;-69
2021/08/13 01:24:07;;;;;;;30.35;14.82;;;;;;;18.66;73.43;101668.88;5114696;28;20043;-69
2021/08/13 01:26:44;;;;;;;27.02;15.43;;;;;;;18.67;73.76;101676.75;5113845;28;20031;-69
2021/08/13 01:29:25;;;;;;;27.02;14.75;;;;;;;18.67;73.49;101674.06;5113267;28;20097;-69
2021/08/13 01:32:27;;;;;;;25.40;14.63;;;;;;;18.68;73.03;101678.44;5113523;28;20407;-69
2021/08/13 01:35:00;;;;;;;28.02;14.77;;;;;;;18.66;73.28;101674.22;5113238;28;20039;-69
2021/08/13 01:37:29;;;;;;;26.50;15.25;;;;;;;18.57;73.93;101674.34;5113078;28;20047;-69
2021/08/13 01:40:03;;;;;;;28.40;14.93;;;;;;;18.57;73.78;101662.72;5113404;28;20048;-69
2021/08/13 01:42:33;;;;;;;28.77;15.45;;;;;;;18.62;73.96;101665.72;5114062;28;20108;-69
2021/08/13 01:45:04;;;;;;;29.00;15.32;;;;;;;18.65;74.35;101662.66;5113455;28;20070;-69
2021/08/13 01:47:35;;;;;;;24.00;14.50;;;;;;;18.67;74.10;101668.69;5114356;27;20036;-69
2021/08/13 01:50:04;;;;;;;27.45;14.70;;;;;;;18.64;74.37;101668.22;5076314;28;20131;-69
2021/08/13 01:52:31;;;;;;;30.65;14.68;;;;;;;18.54;74.67;101657.75;5091560;28;20054;-69
2021/08/13 01:54:59;;;;;;;28.25;15.85;;;;;;;18.59;74.45;101658.00;5112391;28;20047;-69
2021/08/13 01:57:26;;;;;;;29.80;16.15;;;;;;;18.57;74.66;101655.53;5114108;28;20473;-69
2021/08/13 01:59:53;;;;;;;28.98;15.52;;;;;;;18.54;74.98;101661.25;5113905;28;20376;-69
2021/08/13 02:02:21;;;;;;;28.70;15.85;;;;;;;18.55;74.67;101670.97;5079014;28;20040;-69
2021/08/13 02:04:51;;;;;;;30.88;16.05;;;;;;;18.55;74.51;101675.53;5113568;28;20039;-69
2021/08/13 02:07:20;;;;;;;26.52;15.13;;;;;;;18.60;74.29;101675.81;5114000;28;20036;-69
2021/08/13 02:09:48;;;;;;;34.78;16.05;;;;;;;18.63;74.66;101667.38;5114080;28;20039;-69
2021/08/13 02:12:21;;;;;;;29.83;15.50;;;;;;;18.64;74.75;101673.59;5112619;28;20043;-69
2021/08/13 02:14:56;;;;;;;24.55;15.15;;;;;;;18.65;74.76;101672.59;5113951;28;20104;-69
2021/08/13 02:17:29;;;;;;;25.65;15.55;;;;;;;18.61;74.75;101666.75;5112779;28;20508;-69
2021/08/13 02:20:02;;;;;;;25.67;15.50;;;;;;;18.57;74.81;101663.59;5113260;28;20547;-69
2021/08/13 02:22:30;;;;;;;28.27;15.23;;;;;;;18.55;75.24;101662.91;5112638;28;20460;-68
2021/08/13 02:24:59;;;;;;;27.42;15.23;;;;;;;18.45;74.90;101658.84;5112962;28;20512;-68
2021/08/13 02:27:28;;;;;;;26.58;14.85;;;;;;;18.43;75.34;101659.03;5114079;28;20044;-68
2021/08/13 02:29:56;;;;;;;28.52;14.65;;;;;;;18.45;75.75;101658.84;5112204;28;20048;-68
2021/08/13 02:32:28;;;;;;;29.40;15.63;;;;;;;18.44;75.63;101658.00;5113288;28;20492;-69
2021/08/13 02:34:55;;;;;;;25.65;15.07;;;;;;;18.35;75.42;101661.78;5113199;28;20395;-69
2021/08/13 02:37:55;;;;;;;27.90;14.90;;;;;;;18.31;75.90;101658.63;5113449;28;20119;-69
2021/08/13 02:40:30;;;;;;;24.88;14.13;;;;;;;18.34;75.73;101662.81;5113186;28;20096;-69
2021/08/13 02:43:09;;;;;;;30.17;15.52;;;;;;;18.33;75.82;101659.28;5111904;28;20096;-69
2021/08/13 02:45:44;;;;;;;24.80;14.88;;;;;;;18.26;75.99;101663.72;5095825;28;20048;-69
2021/08/13 02:48:14;;;;;;;24.23;14.82;;;;;;;18.26;75.63;101654.84;5111485;28;20411;-70
2021/08/13 02:50:47;;;;;;;26.60;15.18;;;;;;;18.26;76.13;101652.97;5113317;28;20324;-69
2021/08/13 02:53:19;;;;;;;28.08;15.50;;;;;;;18.19;76.64;101650.19;5112862;28;20052;-69
2021/08/13 02:55:53;;;;;;;30.73;15.52;;;;;;;18.17;76.73;101665.66;5111805;28;20544;-69
2021/08/13 02:58:23;;;;;;;27.33;15.00;;;;;;;18.15;76.55;101656.94;5110155;22;20043;-69
2021/08/13 03:00:52;;;;;;;26.95;14.80;;;;;;;18.13;76.70;101655.47;5074165;28;20046;-69
2021/08/13 03:03:21;;;;;;;29.85;14.85;;;;;;;18.14;76.99;101654.47;5091574;28;20377;-69
2021/08/13 03:05:50;;;;;;;26.02;15.30;;;;;;;18.13;77.09;101658.97;5057944;28;20507;-69
2021/08/13 03:08:19;;;;;;;23.30;15.20;;;;;;;18.19;76.99;101654.72;5074356;28;20579;-69
2021/08/13 03:10:49;;;;;;;30.10;15.13;;;;;;;18.18;77.41;101647.69;5092631;28;20046;-69
2021/08/13 03:13:23;;;;;;;27.05;15.68;;;;;;;18.15;76.91;101646.19;5074022;28;20047;-69
2021/08/13 03:15:51;;;;;;;25.17;15.40;;;;;;;18.20;76.89;101648.34;5092576;28;20044;-69
2021/08/13 03:18:20;;;;;;;28.30;14.60;;;;;;;18.19;77.00;101643.97;5090569;28;20127;-69
2021/08/13 03:20:49;;;;;;;27.65;15.38;;;;;;;18.14;77.18;101641.03;5073893;28;20134;-69
2021/08/13 03:23:16;;;;;;;28.88;14.65;;;;;;;18.15;77.15;101640.81;5074691;28;20377;-69
2021/08/13 03:25:44;;;;;;;25.65;14.32;;;;;;;18.15;77.05;101642.69;5092107;28;20134;-69
2021/08/13 03:28:16;;;;;;;23.80;14.65;;;;;;;18.15;77.35;101635.44;5092373;28;20079;-69
2021/08/13 03:30:45;;;;;;;29.70;15.73;;;;;;;18.13;77.45;101633.97;5057730;28;20040;-69
2021/08/13 03:33:18;;;;;;;23.48;15.02;;;;;;;18.15;77.36;101631.94;5092075;28;20072;-69
2021/08/13 03:35:46;;;;;;;23.35;14.73;;;;;;;18.12;77.23;101630.47;5092111;28;20059;-69
2021/08/13 03:38:13;;;;;;;28.38;15.25;;;;;;;18.09;77.19;101633.50;5073750;28;20043;-69
2021/08/13 03:40:41;;;;;;;24.45;14.77;;;;;;;18.11;77.33;101642.22;5090474;28;20048;-69
2021/08/13 03:43:08;;;;;;;23.48;15.13;;;;;;;18.09;77.34;101636.19;5091732;28;20051;-69
2021/08/13 03:45:36;;;;;;;29.23;15.25;;;;;;;18.09;77.56;101636.19;5092064;28;20450;-69
2021/08/13 03:48:05;;;;;;;28.05;14.70;;;;;;;18.08;77.71;101652.47;5074673;28;20047;-69
2021/08/13 03:50:33;;;;;;;26.25;14.82;;;;;;;18.04;77.97;101635.91;5071716;28;20040;-69
2021/08/13 03:53:01;;;;;;;25.20;13.75;;;;;;;18.03;77.84;101634.25;5073974;28;20044;-69
2021/08/13 03:55:28;;;;;;;28.42;15.35;;;;;;;17.99;77.85;101628.41;5091826;28;20039;-69
2021/08/13 03:57:55;;;;;;;22.92;14.13;;;;;;;18.00;78.02;101634.59;5090564;28;20044;-69
2021/08/13 04:00:22;;;;;;;24.65;14.05;;;;;;;18.06;78.00;101655.34;5107791;28;20066;-69
2021/08/13 04:02:51;;;;;;;28.20;14.70;;;;;;;18.05;78.09;101648.31;5091730;28;20267;-69
2021/08/13 04:05:23;;;;;;;26.63;14.50;;;;;;;18.04;77.83;101652.00;5091498;28;20412;-69
2021/08/13 04:07:51;;;;;;;26.20;13.85;;;;;;;18.07;77.67;101667.75;5092041;28;20127;-69
2021/08/13 04:10:19;;;;;;;23.23;13.70;;;;;;;18.08;77.61;101672.13;5091697;28;20048;-69
2021/08/13 04:12:46;;;;;;;26.20;13.85;;;;;;;18.11;77.96;101671.75;5090016;28;20040;-69
2021/08/13 04:15:18;;;;;;;31.13;14.38;;;;;;;18.16;77.68;101666.66;5076136;28;20492;-69
2021/08/13 04:17:48;;;;;;;26.15;14.85;;;;;;;18.05;78.40;101658.22;5095402;28;20546;-69
2021/08/13 04:20:16;;;;;;;23.02;14.05;;;;;;;17.98;78.70;101664.31;5077582;28;20040;-69
2021/08/13 04:22:48;;;;;;;26.23;15.18;;;;;;;17.94;79.05;101665.69;5053058;28;20508;-69
2021/08/13 04:25:14;;;;;;;28.17;13.77;;;;;;;17.93;79.23;101664.00;5095650;28;20094;-69
2021/08/13 04:27:42;;;;;;;27.13;14.65;;;;;;;17.89;79.20;101660.03;5095847;28;20127;-69
2021/08/13 04:30:09;;;;;;;24.50;14.55;;;;;;;17.86;79.29;101654.19;5095221;28;20051;-69
2021/08/13 04:32:37;;;;;;;27.77;14.82;;;;;;;17.80;79.69;101656.53;5095371;28;20077;-69
2021/08/13 04:35:05;;;;;;;23.75;14.70;;;;;;;17.81;79.67;101657.38;5095007;28;20460;-69
2021/08/13 04:37:32;;;;;;;31.67;15.63;;;;;;;17.79;79.55;101664.75;5059044;28;20472;-69
2021/08/13 04:40:00;;;;;;;28.52;14.90;;;;;;;17.77;79.63;101664.09;5079214;28;20044;-68
2021/08/13 04:42:27;;;;;;;25.00;15.38;;;;;;;17.77;79.54;101666.78;5079962;28;20047;-69
2021/08/13 04:44:54;;;;;;;26.55;15.88;;;;;;;17.81;79.86;101660.06;5097271;28;20078;-68
2021/08/13 04:47:32;;;;;;;28.98;15.00;;;;;;;17.78;79.97;101655.06;5095382;28;20044;-68
2021/08/13 04:49:59;;;;;;;26.83;14.98;;;;;;;17.84;80.42;101660.53;5077245;28;20048;-68
2021/08/13 04:52:26;;;;;;;26.98;15.63;;;;;;;17.81;80.39;101660.91;5077273;28;20127;-68
2021/08/13 04:54:53;;;;;;;29.48;15.15;;;;;;;17.84;80.41;101652.50;5094627;28;20044;-68
2021/08/13 04:57:20;;;;;;;27.25;15.60;;;;;;;17.85;80.40;101650.66;5094038;28;20396;-68
2021/08/13 04:59:47;;;;;;;27.80;16.02;;;;;;;17.84;80.60;101640.91;5067108;23;20075;-69
2021/08/13 05:02:23;;;;;;;26.00;15.88;;;;;;;17.91;80.31;101646.44;5094511;28;20254;-69
2021/08/13 05:04:58;;;;;;;30.83;15.57;;;;;;;17.94;80.31;101646.06;5076253;28;20109;-69
2021/08/13 05:07:28;;;;;;;31.70;14.88;;;;;;;17.98;80.33;101648.19;5093089;28;20082;-69
2021/08/13 05:09:54;;;;;;;25.73;14.88;;;;;;;18.03;80.20;101653.88;5076532;28;20043;-69
2021/08/13 05:12:21;;;;;;;27.33;15.32;;;;;;;18.12;80.14;101659.16;5094536;28;20040;-69
2021/08/13 05:14:48;;;;;;;26.52;15.40;;;;;;;18.14;80.08;101665.19;5076639;28;20576;-68
2021/08/13 05:17:16;;;;;;;31.52;16.10;;;;;;;18.14;79.85;101655.28;5076715;28;20111;-69
2021/08/13 05:19:42;;;;;;;31.05;15.73;;;;;;;18.21;79.79;101658.09;5046671;28;20144;-69
2021/08/13 05:22:10;;;;;;;26.35;15.32;;;;;;;18.27;79.24;101657.34;5055966;28;20123;-69
2021/08/13 05:24:38;;;;;;;28.20;15.05;;;;;;;18.34;79.76;101660.97;5072444;28;20370;-68
2021/08/13 05:27:04;;;;;;;29.90;15.57;;;;;;;18.44;79.25;101662.53;5055977;28;20037;-69
2021/08/13 05:29:32;;;;;;;27.48;15.55;;;;;;;18.48;78.81;101656.63;5074208;28;20451;-69
2021/08/13 05:31:59;;;;;;;32.40;14.82;;;;;;;18.53;78.84;101667.66;5075942;28;20051;-69
2021/08/13 05:34:26;;;;;;;28.08;14.93;;;;;;;18.62;78.32;101663.03;5092608;28;20454;-69
2021/08/13 05:36:53;;;;;;;25.95;14.43;;;;;;;18.72;78.79;101665.41;5075620;28;20075;-69
2021/08/13 05:39:21;;;;;;;30.67;14.93;;;;;;;18.75;78.36;101671.25;5093952;28;20048;-69
2021/08/13 05:41:48;;;;;;;31.77;15.38;;;;;;;18.74;77.55;101682.22;5076352;28;20040;-69
2021/08/13 05:44:15;;;;;;;23.35;14.00;;;;;;;18.87;77.90;101682.44;5076022;28;20502;-69
2021/08/13 05:46:43;;;;;;;27.33;15.27;;;;;;;18.90;77.63;101674.00;5094185;28;20048;-69
2021/08/13 05:49:10;;;;;;;30.60;15.32;;;;;;;18.91;77.26;101682.88;5076172;28;20504;-69
2021/08/13 05:51:37;;;;;;;28.95;15.43;;;;;;;18.94;76.58;101679.84;5093886;28;20101;-69
2021/08/13 05:54:05;;;;;;;31.33;15.68;;;;;;;18.94;76.82;101669.91;5076152;28;20404;-69
2021/08/13 05:56:33;;;;;;;30.02;14.82;;;;;;;18.95;76.51;101678.81;5088186;28;20048;-69
2021/08/13 05:59:00;;;;;;;27.98;14.48;;;;;;;18.96;76.75;101672.41;5093438;28;20076;-69
2021/08/13 06:01:30;;;;;;;24.55;15.10;;;;;;;19.00;77.15;101679.06;5093697;28;20090;-69
2021/08/13 06:03:58;;;;;;;27.38;14.88;;;;;;;19.09;76.39;101690.56;5074975;28;20042;-69
2021/08/13 06:06:27;;;;;;;28.17;14.70;;;;;;;19.15;76.01;101698.69;5073600;28;20070;-69
2021/08/13 06:08:54;;;;;;;31.67;15.57;;;;;;;19.22;75.91;101700.66;5076003;28;20090;-68
2021/08/13 06:11:21;;;;;;;27.92;15.02;;;;;;;19.25;76.16;101703.81;5093739;28;20047;-69
2021/08/13 06:13:47;;;;;;;27.10;15.65;;;;;;;19.29;74.82;101712.34;5074918;28;20044;-69
2021/08/13 06:16:19;;;;;;;29.95;15.68;;;;;;;19.27;75.40;101714.38;5093643;28;20085;-69
2021/08/13 06:18:47;;;;;;;26.98;15.43;;;;;;;19.21;76.02;101715.97;5038585;28;20048;-69
2021/08/13 06:21:14;;;;;;;31.20;16.25;;;;;;;19.23;76.10;101719.31;5072742;28;20090;-69
2021/08/13 06:23:41;;;;;;;28.52;16.00;;;;;;;19.30;76.20;101717.53;5055133;28;20477;-69
2021/08/13 06:26:10;;;;;;;28.92;15.98;;;;;;;19.34;76.58;101726.88;5055679;28;20051;-69
2021/08/13 06:28:38;;;;;;;34.47;17.25;;;;;;;19.47;75.51;101720.84;5072804;28;20041;-69
2021/08/13 06:31:06;;;;;;;27.77;16.05;;;;;;;19.61;75.49;101727.22;5059471;28;20399;-69
2021/08/13 06:33:33;;;;;;;35.60;17.55;;;;;;;19.49;76.12;101732.22;5091175;28;20036;-68
2021/08/13 06:36:02;;;;;;;34.42;17.52;;;;;;;19.55;76.34;101731.50;5074787;28;20044;-69
2021/08/13 06:38:32;;;;;;;32.28;18.23;;;;;;;19.77;75.65;101733.41;5092051;28;20075;-68
2021/08/13 06:40:59;;;;;;;34.50;18.27;;;;;;;19.75;74.93;101744.34;5058501;28;20063;-69
2021/08/13 06:43:26;;;;;;;37.33;19.58;;;;;;;19.75;74.79;101744.34;5092352;28;20105;-69
2021/08/13 06:45:55;;;;;;;31.92;17.30;;;;;;;19.60;75.61;101732.78;5093047;28;20575;-69
2021/08/13 06:48:25;;;;;;;36.00;20.55;;;;;;;19.73;74.83;101723.00;5056898;28;20047;-69
2021/08/13 06:50:52;;;;;;;40.05;18.17;;;;;;;19.68;75.46;101738.88;5072214;28;20045;-69
2021/08/13 06:53:19;;;;;;;33.55;18.77;;;;;;;19.79;75.09;101728.66;5079509;28;20454;-69
2021/08/13 06:55:46;;;;;;;39.35;20.85;;;;;;;19.92;73.89;101731.50;5057479;28;20115;-69
2021/08/13 06:58:13;;;;;;;37.08;20.52;;;;;;;19.79;74.74;101729.47;5091307;28;20050;-70
2021/08/13 07:00:41;;;;;;;41.15;21.45;;;;;;;19.93;73.85;101736.66;5079986;23;20382;-68
2021/08/13 07:03:09;;;;;;;40.63;20.25;;;;;;;19.90;73.94;101734.38;5092169;28;20044;-68
2021/08/13 07:05:36;;;;;;;38.10;21.20;;;;;;;19.94;73.77;101735.66;5075273;28;20484;-68
2021/08/13 07:08:09;;;;;;;37.47;21.40;;;;;;;19.96;74.11;101735.47;5073370;28;20127;-69
2021/08/13 07:10:40;;;;;;;43.75;22.85;;;;;;;19.97;74.01;101737.13;5092240;28;20496;-68
2021/08/13 07:13:06;;;;;;;48.65;22.98;;;;;;;19.91;73.48;101736.03;5074279;28;20112;-69
2021/08/13 07:15:34;;;;;;;47.95;22.60;;;;;;;19.89;73.77;101732.69;5092732;28;20067;-69
2021/08/13 07:18:01;;;;;;;43.08;22.85;;;;;;;19.88;73.63;101743.66;5074323;28;20060;-69
2021/08/13 07:20:28;;;;;;;44.67;23.48;;;;;;;20.10;72.71;101752.56;5091883;28;20040;-69
2021/08/13 07:22:55;;;;;;;45.42;23.65;;;;;;;20.14;71.57;101751.19;5074217;28;20484;-69
2021/08/13 07:25:22;;;;;;;49.75;23.80;;;;;;;20.15;71.47;101744.75;5088158;28;20035;-69
2021/08/13 07:27:49;;;;;;;45.17;24.05;;;;;;;20.13;70.99;101749.50;5112601;28;20096;-69
2021/08/13 07:30:18;;;;;;;50.83;23.45;;;;;;;20.17;71.03;101752.66;5112434;28;20043;-69
2021/08/13 07:32:46;;;;;;;43.17;22.92;;;;;;;20.01;72.39;101749.19;5111150;28;20051;-69
2021/08/13 07:35:14;;;;;;;54.20;24.00;;;;;;;20.09;71.66;101754.44;5112197;28;20047;-69
2021/08/13 07:37:48;;;;;;;50.58;26.88;;;;;;;20.33;69.71;101753.19;5110584;28;20046;-69
2021/08/13 07:40:16;;;;;;;52.65;26.65;;;;;;;20.39;69.61;101765.09;5078089;28;20411;-69
2021/08/13 07:42:43;;;;;;;51.88;28.10;;;;;;;20.45;69.56;101775.06;5112247;28;20396;-69
2021/08/13 07:45:12;;;;;;;61.03;28.90;;;;;;;20.47;69.68;101769.50;5094285;28;20062;-69
2021/08/13 07:47:39;;;;;;;56.25;29.20;;;;;;;20.55;69.53;101769.34;5112324;28;20365;-69
2021/08/13 07:50:08;;;;;;;58.28;30.63;;;;;;;20.57;69.74;101761.88;5096684;28;20058;-69
2021/08/13 07:52:36;;;;;;;55.97;28.58;;;;;;;20.60;70.02;101774.16;5098178;28;20047;-69
2021/08/13 07:55:04;;;;;;;61.17;30.90;;;;;;;20.51;70.27;101784.25;5115711;28;20102;-69
2021/08/13 07:57:31;;;;;;;57.63;32.88;;;;;;;20.64;70.30;101784.38;5116271;28;20119;-69
2021/08/13 08:00:01;;;;;;;63.42;32.35;;;;;;;20.68;69.85;101793.75;5116241;28;20047;-69
2021/08/13 08:02:33;;;;;;;55.65;32.38;;;;;;;20.93;69.16;101804.06;5116179;28;20325;-69
2021/08/13 08:05:11;;;;;;;63.67;35.63;;;;;;;20.77;70.13;101807.91;5110104;27;20803;-70
2021/08/13 08:07:40;;;;;;;67.63;36.65;;;;;;;20.93;70.27;101812.16;5108665;28;20040;-69
2021/08/13 08:10:19;;;;;;;72.38;36.58;;;;;;;21.07;69.63;101815.81;5109737;27;20125;-68
2021/08/13 08:12:58;;;;;;;67.15;37.45;;;;;;;21.27;68.78;101818.63;5089315;27;20380;-68
2021/08/13 08:15:27;;;;;;;80.13;40.17;;;;;;;21.33;68.66;101822.38;5088021;28;20044;-68
2021/08/13 08:18:05;;;;;;;69.53;39.75;;;;;;;21.26;68.86;101827.72;5109947;27;20362;-68
2021/08/13 08:20:35;;;;;;;68.97;39.78;;;;;;;;;;5108497;28;20036;-70
2021/08/13 08:23:12;;;;;;;71.97;40.45;;;;;;;21.08;70.19;101831.78;5109088;27;20365;-68
2021/08/13 08:25:41;;;;;;;77.05;40.17;;;;;;;21.16;69.20;101829.97;5090747;28;20052;-68
2021/08/13 08:28:20;;;;;;;67.22;38.50;;;;;;;21.06;70.29;101843.78;5130707;27;20364;-69
2021/08/13 08:30:58;;;;;;;68.72;38.03;;;;;;;21.26;68.97;101835.81;5130277;27;20406;-68
2021/08/13 08:33:36;;;;;;;62.45;36.72;;;;;;;21.28;69.36;101837.31;5148875;27;20603;-69
2021/08/13 08:36:14;;;;;;;66.88;36.92;;;;;;;21.14;69.66;101843.66;5109238;27;20748;-69
2021/08/13 08:38:52;;;;;;;71.03;36.95;;;;;;;21.19;68.96;101838.50;5129771;27;20386;-68
2021/08/13 08:41:31;;;;;;;60.65;36.50;;;;;;;21.29;68.58;101846.22;5130536;27;20359;-68
2021/08/13 08:44:08;;;;;;;63.05;36.58;;;;;;;21.28;68.06;101848.09;5129350;27;20369;-68
2021/08/13 08:46:38;;;;;;;70.85;36.58;;;;;;;21.34;67.72;101846.47;5111024;28;20115;-68
2021/08/13 08:49:18;;;;;;;72.20;36.42;;;;;;;21.39;68.35;101848.56;5130194;27;20357;-69
2021/08/13 08:51:57;;;;;;;61.38;36.60;;;;;;;21.40;67.21;101853.75;5130286;27;20736;-68
2021/08/13 08:54:27;;;;;;;78.13;37.30;;;;;;;21.32;67.88;101880.06;5111919;28;20407;-69
2021/08/13 08:56:57;;;;;;;61.90;35.17;;;;;;;21.51;68.08;101883.97;5128948;28;20040;-68
2021/08/13 08:59:40;;;;;;;62.10;32.60;;;;;;;21.70;65.89;101877.81;5120269;27;20044;-68
2021/08/13 09:02:13;;;;;;;59.42;33.80;;;;;;;21.84;64.91;101867.91;5125992;28;20040;-68
2021/08/13 09:04:54;;;;;;;60.58;30.83;;;;;;;21.86;65.03;101863.16;5129146;27;20128;-68
2021/08/13 09:07:31;;;;;;;52.75;29.60;;;;;;;21.88;65.83;101865.66;5127936;27;20357;-68
2021/08/13 09:10:11;;;;;;;48.22;26.33;;;;;;;21.97;65.15;101875.25;5130305;27;20379;-68
2021/08/13 09:12:52;;;;;;;46.80;24.92;;;;;;;22.08;64.46;101863.03;5129646;27;20387;-68
2021/08/13 09:15:38;;;;;;;45.65;24.02;;;;;;;22.36;62.56;101862.91;5109716;27;20523;-68
2021/08/13 09:18:18;;;;;;;40.15;23.95;;;;;;;22.30;62.30;101866.44;5091690;28;20440;-68
2021/08/13 09:20:52;;;;;;;44.65;23.95;;;;;;;22.27;62.54;101866.84;5071252;28;20058;-68
2021/08/13 09:23:39;;;;;;;47.42;22.17;;;;;;;22.43;62.63;101870.00;5068659;28;20380;-68
2021/08/13 09:26:21;;;;;;;37.55;21.33;;;;;;;22.47;61.74;101889.34;5069095;28;20382;-68
2021/08/13 09:29:17;;;;;;;37.38;19.75;;;;;;;22.46;63.07;101889.53;5069358;28;20493;-68
2021/08/13 09:31:58;;;;;;;37.63;21.08;;;;;;;22.43;62.48;101888.91;5054517;28;20115;-69
2021/08/13 09:34:31;;;;;;;37.65;18.20;;;;;;;22.54;61.53;101895.59;5051090;28;20044;-69
2021/08/13 09:36:58;;;;;;;35.65;18.65;;;;;;;22.67;62.31;101894.78;5050820;28;20444;-69
2021/08/13 09:39:30;;;;;;;30.40;17.45;;;;;;;22.82;61.77;101886.47;5068586;28;20056;-68
2021/08/13 09:41:58;;;;;;;31.40;18.85;;;;;;;22.85;59.67;101885.19;5049694;28;20454;-68
2021/08/13 09:44:31;;;;;;;32.03;18.63;;;;;;;23.00;59.86;101886.66;5068661;28;20037;-69
2021/08/13 09:47:02;;;;;;;31.05;17.02;;;;;;;23.13;60.59;101887.72;5051110;28;20444;-68
2021/08/13 09:49:32;;;;;;;37.60;20.80;;;;;;;23.24;60.44;101880.84;5067551;28;20072;-68
2021/08/13 09:52:16;;;;;;;34.20;21.33;;;;;;;23.27;59.32;101881.25;5061989;28;20036;-69
2021/08/13 09:54:46;;;;;;;31.58;18.98;;;;;;;23.32;60.01;101876.03;5067276;28;20417;-68
2021/08/13 09:57:15;;;;;;;39.63;20.70;;;;;;;23.29;60.08;101881.03;5032638;28;20069;-69
2021/08/13 10:00:04;;;;;;;29.38;17.40;;;;;;;23.48;59.82;101877.44;5056085;28;20128;-68
2021/08/13 10:02:43;;;;;;;29.45;14.15;;;;;;;23.90;57.83;101877.13;5061220;28;20135;-68
2021/08/13 10:08:00;;;;;;;23.15;12.80;;;;;;;23.78;55.98;101874.22;5132614;27;20387;-68
2021/08/13 10:10:32;;;;;;;23.75;12.45;;;;;;;23.98;55.82;101876.88;5115831;28;20043;-69
2021/08/13 10:13:04;;;;;;;22.13;12.93;;;;;;;24.06;54.65;101873.09;5126037;28;20043;-69
2021/08/13 10:18:15;;;;;;;19.45;8.63;;;;;;;24.33;53.07;101866.44;5117148;27;20388;-69
2021/08/13 10:20:48;;;;;;;20.52;10.63;;;;;;;24.45;51.74;101860.31;5089195;28;20083;-72
2021/08/13 10:23:20;;;;;;;16.95;9.45;;;;;;;24.24;51.37;101862.34;5103751;28;20039;-72
2021/08/13 10:25:50;;;;;;;27.73;9.40;;;;;;;24.39;51.83;101847.66;5108751;28;20115;-73
2021/08/13 10:28:23;;;;;;;16.98;9.13;;;;;;;24.60;50.63;101841.06;5109222;28;20551;-72
2021/08/13 10:30:57;;;;;;;17.80;8.38;;;;;;;24.43;51.76;101859.72;5109093;28;20051;-73
2021/08/13 10:33:25;;;;;;;14.90;7.72;;;;;;;24.22;51.24;101855.50;5108920;28;20086;-73
2021/08/13 10:35:55;;;;;;;32.00;18.85;;;;;;;24.30;52.25;101856.06;5109489;28;20044;-72
2021/08/13 10:38:25;;;;;;;23.08;11.52;;;;;;;24.66;51.09;101851.03;5107734;28;20051;-73
2021/08/13 10:40:52;;;;;;;16.70;8.43;;;;;;;24.67;49.89;101844.56;5108378;28;20068;-70
2021/08/13 10:43:23;;;;;;;16.40;5.90;;;;;;;24.60;48.37;101858.16;5108440;28;20046;-73
2021/08/13 10:45:52;;;;;;;12.70;5.72;;;;;;;24.79;49.42;101852.78;5108426;28;20058;-72
2021/08/13 10:48:26;;;;;;;13.70;5.57;;;;;;;24.51;48.58;101854.03;5109356;28;20044;-71
2021/08/13 10:50:57;;;;;;;12.82;5.50;;;;;;;24.20;50.44;101853.00;5109180;28;20504;-71
2021/08/13 10:53:29;;;;;;;16.23;6.55;;;;;;;24.38;49.18;101848.72;5107662;28;20090;-71
2021/08/13 10:56:00;;;;;;;14.20;4.60;;;;;;;24.59;48.80;101845.63;5116768;27;20093;-71
2021/08/13 10:58:45;;;;;;;9.82;4.68;;;;;;;24.68;48.51;101846.19;5074244;28;20462;-71
2021/08/13 11:01:26;;;;;;;10.93;4.57;;;;;;;24.49;49.21;101854.25;5078310;28;20059;-71
2021/08/13 11:04:04;;;;;;;12.63;4.38;;;;;;;24.56;48.73;101865.09;5107010;28;20562;-72
2021/08/13 11:09:33;;;;;;;18.15;5.72;;;;;;;24.57;49.86;101855.88;5088784;27;20132;-71
2021/08/13 11:12:05;;;;;;;12.15;4.50;;;;;;;24.56;50.82;101856.09;5071679;28;20045;-72
2021/08/13 11:14:54;;;;;;;8.43;3.83;;;;;;;24.80;49.79;101849.03;5068859;28;20036;-71
2021/08/13 11:17:43;;;;;;;11.60;3.70;;;;;;;24.41;49.91;101857.22;5068312;28;20112;-71
2021/08/13 11:20:15;;;;;;;15.90;3.95;;;;;;;24.37;50.66;101874.97;5069060;28;20063;-72
2021/08/13 11:23:02;;;;;;;10.93;3.53;;;;;;;24.43;49.39;101865.97;5069659;28;20052;-72
2021/08/13 11:25:50;;;;;;;8.82;4.30;;;;;;;24.72;50.28;101869.13;5085917;28;20051;-71
2021/08/13 11:28:25;;;;;;;11.70;3.65;;;;;;;24.90;50.17;101852.91;5087349;28;20040;-72
2021/08/13 11:30:57;;;;;;;12.02;4.22;;;;;;;25.25;48.98;101857.81;5070220;28;20048;-71
2021/08/13 11:33:34;;;;;;;10.13;3.65;;;;;;;25.11;48.47;101861.69;5050759;28;20076;-71
2021/08/13 11:36:02;;;;;;;9.10;3.70;;;;;;;25.43;48.57;101862.41;5078126;28;20052;-72
2021/08/13 11:41:24;;;;;;;8.85;3.60;;;;;;;25.34;48.69;101868.34;5130151;27;20375;-71